Terminal Aerodrome Forecast
Issued by NWS Jackson, MS

Home | Current Version | Previous Version | Text Only | Print | Product List | Glossary On
Versions: 1 2 3 4 5 6 7 8 9 10 11 12 13 14 15 16 17 18 19 20
000
FTUS44 KJAN 310500
TAFGLH
TAF
KGLH 310525Z 3106/0106 18007KT P6SM OVC015
     FM310730 19007KT 5SM BR VCSH OVC008
     FM311600 20012KT P6SM BKN020
     FM311730 21012KT P6SM SCT040
     FM010000 18005KT P6SM SKC=

USA.gov is the U.S. government's official web portal to all federal, state and local government web resources and services.